createdAt,value
2023-02-11T09:08:37.760Z,2.83
2023-02-11T09:19:21.891Z,1.58
2023-02-11T09:21:51.717Z,2.15
2023-02-11T09:26:55.747Z,1.52
2023-02-11T09:29:22.428Z,1.60
2023-02-11T09:31:50.044Z,1.60
2023-02-11T09:34:24.956Z,1.60
2023-02-11T09:39:40.872Z,1.40
2023-02-11T09:42:37.588Z,1.65
2023-02-11T09:51:00.408Z,1.83
2023-02-11T09:53:29.868Z,1.77
2023-02-11T09:55:59.558Z,2.53
2023-02-11T09:58:30.036Z,2.25
2023-02-11T10:01:04.035Z,1.92
2023-02-11T10:03:48.115Z,1.92
2023-02-11T10:06:38.971Z,1.80
2023-02-11T10:09:21.595Z,1.25
2023-02-11T10:11:55.837Z,1.65
2023-02-11T10:14:43.546Z,1.38
2023-02-11T10:17:21.004Z,2.05
2023-02-11T10:20:02.038Z,1.73
2023-02-11T10:22:33.639Z,1.85
2023-02-11T10:25:06.048Z,1.77
2023-02-11T10:27:34.767Z,1.67
2023-02-11T10:30:11.796Z,1.70
2023-02-11T10:32:44.075Z,1.40
2023-02-11T10:35:15.415Z,1.92
2023-02-11T10:37:44.450Z,1.25
2023-02-11T10:40:14.539Z,1.80
2023-02-11T10:42:44.239Z,2.10
2023-02-11T10:45:22.105Z,2.10
2023-02-11T10:47:48.813Z,1.60
2023-02-11T10:50:22.850Z,1.75
2023-02-11T10:52:50.025Z,1.15
2023-02-11T10:55:18.246Z,1.52
2023-02-11T10:57:52.570Z,2.00
2023-02-11T11:00:37.082Z,1.75
2023-02-11T11:03:05.875Z,1.52
2023-02-11T11:05:35.915Z,3.55
2023-02-11T11:08:05.515Z,1.20
2023-02-11T11:13:03.272Z,3.33
2023-02-11T11:15:30.985Z,1.83
2023-02-11T11:18:21.954Z,1.52
2023-02-11T11:20:58.497Z,1.42
2023-02-11T11:23:25.940Z,1.80
2023-02-11T11:26:02.609Z,2.08
2023-02-11T11:28:33.250Z,1.90
2023-02-11T11:31:01.070Z,1.85
2023-02-11T11:33:33.788Z,1.08
2023-02-11T11:36:05.223Z,1.17
2023-02-11T11:38:34.683Z,1.95
2023-02-11T11:41:28.484Z,1.85
2023-02-11T11:43:57.489Z,2.15
2023-02-11T11:46:26.856Z,1.88
2023-02-11T11:49:00.851Z,2.35
2023-02-11T11:51:29.178Z,2.42
2023-02-11T11:54:00.653Z,2.33
2023-02-11T11:56:30.194Z,2.60
2023-02-11T12:01:34.722Z,1.60
2023-02-11T12:04:43.915Z,1.75
2023-02-11T12:07:26.839Z,1.50
2023-02-11T12:10:09.920Z,3.28
2023-02-11T12:12:46.503Z,3.28
2023-02-11T12:15:29.301Z,2.60
2023-02-11T12:18:17.379Z,2.03
2023-02-11T12:21:03.678Z,1.67
2023-02-11T12:23:44.412Z,1.92
2023-02-11T12:26:15.781Z,1.98
2023-02-11T12:28:55.416Z,2.28
2023-02-11T12:31:35.285Z,1.50
2023-02-11T12:34:24.502Z,2.13
2023-02-11T12:37:03.015Z,2.63
2023-02-11T12:39:40.165Z,2.33
2023-02-11T12:42:45.421Z,2.42
2023-02-11T12:45:27.958Z,2.25
2023-02-11T12:48:07.343Z,3.22
2023-02-11T12:50:42.401Z,2.05
2023-02-11T12:53:25.772Z,2.08
2023-02-11T12:56:05.062Z,2.30
2023-02-11T12:58:44.917Z,2.00
2023-02-11T13:01:20.693Z,1.38
2023-02-11T13:03:53.382Z,2.25
2023-02-11T13:06:27.683Z,2.30
2023-02-11T13:09:00.352Z,2.10
2023-02-11T13:11:30.211Z,2.47
2023-02-11T13:14:02.150Z,3.20
2023-02-11T13:16:35.331Z,3.13
2023-02-11T13:19:10.227Z,2.00
2023-02-11T13:22:00.456Z,2.38
2023-02-11T13:24:34.699Z,2.53
2023-02-11T13:27:10.570Z,3.17
2023-02-11T13:32:16.143Z,2.58
2023-02-11T13:34:58.094Z,2.15
2023-02-11T13:37:27.418Z,2.55
2023-02-11T13:40:01.709Z,1.98
2023-02-11T13:42:32.919Z,2.40
2023-02-11T13:45:01.502Z,3.15
2023-02-11T13:47:37.915Z,2.67
2023-02-11T13:50:08.297Z,2.15
2023-02-11T13:52:41.144Z,1.85
2023-02-11T13:55:19.826Z,1.92
2023-02-11T13:58:17.383Z,2.15
2023-02-11T14:00:53.443Z,2.20
2023-02-11T14:04:19.943Z,2.33
2023-02-11T14:07:45.519Z,2.03
2023-02-11T14:11:01.103Z,2.25
2023-02-11T14:13:33.639Z,1.90
2023-02-11T14:16:09.404Z,3.83
2023-02-11T14:18:59.589Z,1.88
2023-02-11T14:21:37.704Z,1.23
2023-02-11T14:24:45.011Z,1.15
2023-02-11T14:27:21.798Z,3.33
2023-02-11T14:30:03.380Z,2.17
2023-02-11T14:32:47.743Z,0.90
2023-02-11T14:35:38.344Z,0.98
2023-02-11T14:38:15.694Z,1.38
2023-02-11T14:40:54.157Z,1.13
2023-02-11T14:43:29.367Z,0.63
2023-02-11T14:46:05.989Z,0.50
2023-02-11T14:48:39.720Z,1.48
2023-02-11T14:51:11.313Z,1.02
2023-02-11T14:53:43.581Z,0.90
2023-02-11T14:56:19.557Z,1.30
2023-02-11T14:58:57.605Z,1.42
2023-02-11T15:01:40.830Z,1.10
2023-02-11T15:04:36.514Z,1.05
2023-02-11T15:09:53.217Z,1.30
2023-02-11T15:12:40.605Z,1.90
2023-02-11T15:15:13.062Z,1.73
2023-02-11T15:17:44.442Z,1.77
2023-02-11T15:20:25.857Z,1.92
2023-02-11T15:22:57.992Z,1.80
2023-02-11T15:25:28.287Z,1.10
2023-02-11T15:28:18.283Z,1.27
2023-02-11T15:31:05.787Z,1.30
2023-02-11T15:33:38.622Z,6.13
2023-02-11T15:36:16.284Z,4.65
2023-02-11T15:38:43.818Z,2.55
2023-02-11T15:41:34.886Z,6.25
2023-02-11T15:44:02.359Z,3.00
2023-02-11T15:46:38.279Z,2.33
2023-02-11T15:49:11.658Z,2.38
2023-02-11T15:54:30.122Z,3.17
2023-02-11T15:57:03.561Z,3.10
2023-02-11T15:59:35.275Z,2.83
2023-02-11T16:02:10.362Z,3.40
2023-02-11T16:04:39.552Z,2.40
2023-02-11T16:07:38.700Z,3.67
2023-02-11T16:10:21.727Z,4.45
2023-02-11T16:12:57.856Z,3.40
2023-02-11T16:15:43.378Z,2.72
2023-02-11T16:18:37.686Z,2.40
2023-02-11T16:21:13.071Z,3.08
2023-02-11T16:23:44.547Z,3.38
2023-02-11T16:26:22.581Z,2.42
2023-02-11T16:28:52.428Z,2.17
2023-02-11T16:31:19.905Z,2.55
2023-02-11T16:33:47.881Z,1.95
2023-02-11T16:36:24.555Z,2.95
2023-02-11T16:38:54.162Z,2.50
2023-02-11T16:41:21.455Z,2.15
2023-02-11T16:43:48.484Z,2.20
2023-02-11T16:46:16.726Z,2.53
2023-02-11T16:48:45.837Z,4.15
2023-02-11T16:51:14.226Z,2.47
2023-02-11T16:53:43.451Z,6.55
2023-02-11T16:56:17.033Z,8.85
2023-02-11T16:58:44.512Z,8.10
2023-02-11T17:01:13.938Z,9.40
2023-02-11T17:03:41.189Z,4.72
2023-02-11T17:06:11.698Z,4.80
2023-02-11T17:08:39.529Z,5.50
2023-02-11T17:11:07.636Z,3.13
2023-02-11T17:13:36.172Z,3.72
2023-02-11T17:16:03.270Z,4.28
2023-02-11T17:18:30.421Z,4.20
2023-02-11T17:20:57.150Z,3.63
2023-02-11T17:23:24.380Z,5.20
2023-02-11T17:25:57.189Z,8.90
2023-02-11T17:28:25.794Z,6.70
2023-02-11T17:30:52.703Z,7.70
2023-02-11T17:33:19.467Z,10.40
2023-02-11T17:35:46.624Z,12.10
2023-02-11T17:38:13.387Z,9.68
2023-02-11T17:40:40.121Z,10.90
2023-02-11T17:43:08.364Z,10.93
2023-02-11T17:45:41.102Z,9.23
2023-02-11T17:48:08.156Z,7.22
2023-02-11T17:50:36.336Z,7.93
2023-02-11T17:53:03.374Z,9.77
2023-02-11T17:55:33.189Z,8.25
2023-02-11T17:58:01.795Z,7.85
2023-02-11T18:00:29.349Z,7.35
2023-02-11T18:03:03.957Z,10.18
2023-02-11T18:05:35.020Z,7.47
2023-02-11T18:08:02.835Z,5.50
2023-02-11T18:10:30.527Z,6.32
2023-02-11T18:12:59.519Z,5.63
2023-02-11T18:15:26.991Z,6.32
2023-02-11T18:17:53.803Z,6.40
2023-02-11T18:20:22.404Z,8.20
2023-02-11T18:22:49.534Z,10.73
2023-02-11T18:25:17.600Z,13.80
2023-02-11T18:27:44.698Z,13.90
2023-02-11T18:30:15.598Z,14.10
2023-02-11T18:32:42.751Z,11.35
2023-02-11T18:35:14.796Z,10.65
2023-02-11T18:37:43.500Z,10.90
2023-02-11T18:40:12.219Z,10.68
2023-02-11T18:42:39.919Z,8.50
2023-02-11T18:45:10.445Z,7.63
2023-02-11T18:47:41.399Z,9.13
2023-02-11T18:50:12.294Z,6.20
2023-02-11T18:52:39.893Z,6.85
2023-02-11T18:55:09.744Z,4.30
2023-02-11T18:57:37.078Z,4.28
2023-02-11T19:00:04.803Z,6.55
2023-02-11T19:02:32.174Z,7.13
2023-02-11T19:05:01.264Z,7.55
2023-02-11T19:07:28.025Z,10.07
2023-02-11T19:09:55.691Z,5.50
2023-02-11T19:12:27.137Z,10.32
2023-02-11T19:14:55.972Z,10.05
2023-02-11T19:17:23.144Z,7.88
2023-02-11T19:19:50.931Z,11.18
2023-02-11T19:22:19.362Z,9.82
2023-02-11T19:24:48.491Z,8.55
2023-02-11T19:27:15.361Z,7.70
2023-02-11T19:29:43.839Z,4.22
2023-02-11T19:32:12.620Z,4.60
2023-02-11T19:34:41.845Z,7.85
2023-02-11T19:37:11.096Z,6.65
2023-02-11T19:39:37.964Z,7.18
2023-02-11T19:42:05.288Z,7.43
2023-02-11T19:44:32.306Z,3.85
2023-02-11T19:47:01.227Z,4.88
2023-02-11T19:49:28.437Z,8.35
2023-02-11T19:51:58.269Z,8.88
2023-02-11T19:57:00.746Z,2.90
2023-02-11T19:59:27.673Z,3.50
2023-02-11T20:01:54.712Z,4.32
2023-02-11T20:04:25.468Z,5.75
2023-02-11T20:06:52.417Z,5.57
2023-02-11T20:09:19.940Z,8.63
2023-02-11T20:11:46.815Z,5.57
2023-02-11T20:14:17.772Z,9.07
2023-02-11T20:16:49.228Z,15.48
2023-02-11T20:19:25.885Z,11.65
2023-02-11T20:21:55.850Z,10.07
2023-02-11T20:24:24.506Z,11.63
2023-02-11T20:26:55.732Z,9.85
2023-02-11T20:29:34.894Z,8.88
2023-02-11T20:32:03.812Z,8.32
2023-02-11T20:34:38.459Z,9.18
2023-02-11T20:37:09.432Z,9.38
2023-02-11T20:39:37.610Z,6.93
2023-02-11T20:42:05.794Z,8.90
2023-02-11T20:44:32.641Z,9.32
2023-02-11T20:46:59.421Z,11.10
2023-02-11T20:49:28.346Z,10.82
2023-02-11T20:51:56.993Z,12.27
2023-02-11T20:54:26.255Z,10.80
2023-02-11T20:56:55.274Z,10.15
2023-02-11T20:59:24.877Z,9.95
2023-02-11T21:01:55.954Z,11.98
2023-02-11T21:04:25.317Z,9.65
2023-02-11T21:06:55.699Z,10.40
2023-02-11T21:09:26.008Z,10.35
2023-02-11T21:11:54.217Z,7.97
2023-02-11T21:14:23.390Z,10.07
2023-02-11T21:16:52.292Z,9.40
2023-02-11T21:19:20.444Z,8.68
2023-02-11T21:21:47.901Z,8.77
2023-02-11T21:24:15.994Z,7.78
2023-02-11T21:26:46.301Z,8.63
2023-02-11T21:29:13.138Z,8.60
2023-02-11T21:31:40.794Z,8.75
2023-02-11T21:34:08.226Z,9.05
2023-02-11T21:36:35.408Z,9.15
2023-02-11T21:39:03.966Z,10.18
2023-02-11T21:41:31.975Z,8.60
2023-02-11T21:44:00.805Z,8.18
2023-02-11T21:46:28.344Z,8.45
2023-02-11T21:48:55.192Z,6.32
2023-02-11T21:51:26.791Z,9.45
2023-02-11T21:53:55.638Z,6.90
2023-02-11T21:56:26.708Z,9.80
2023-02-11T21:58:56.317Z,7.90
2023-02-11T22:01:26.625Z,6.68
2023-02-11T22:03:53.547Z,6.15
2023-02-11T22:06:22.932Z,6.10
2023-02-11T22:08:50.825Z,8.52
2023-02-11T22:11:18.740Z,8.00
2023-02-11T22:13:46.789Z,7.18
2023-02-11T22:16:17.210Z,7.40
2023-02-11T22:18:46.493Z,7.15
2023-02-11T22:21:23.239Z,7.10
2023-02-11T22:23:56.553Z,6.80
2023-02-11T22:26:25.796Z,7.20
2023-02-11T22:28:57.502Z,7.70
2023-02-11T22:31:33.069Z,6.70
2023-02-11T22:34:05.417Z,5.18
2023-02-11T22:36:34.936Z,7.10
2023-02-11T22:39:04.950Z,6.72
2023-02-11T22:43:59.561Z,5.75
2023-02-11T22:46:28.046Z,6.35
2023-02-11T22:48:55.340Z,5.32
2023-02-11T22:51:26.418Z,6.03
2023-02-11T22:53:55.434Z,5.38
2023-02-11T22:56:24.588Z,5.95
2023-02-11T22:58:53.813Z,5.68
2023-02-11T23:01:21.228Z,5.65
2023-02-11T23:03:48.415Z,5.45
2023-02-11T23:06:15.793Z,5.60
2023-02-11T23:08:45.139Z,6.15
2023-02-11T23:11:14.541Z,6.13
2023-02-11T23:13:43.264Z,6.15
2023-02-11T23:16:13.924Z,5.40
2023-02-11T23:18:42.890Z,5.97
2023-02-11T23:21:13.250Z,6.07
2023-02-11T23:23:42.987Z,6.43
2023-02-11T23:26:14.612Z,5.03
2023-02-11T23:28:42.107Z,6.13
2023-02-11T23:31:14.980Z,6.22
2023-02-11T23:33:42.581Z,5.93
2023-02-11T23:36:10.396Z,5.63
2023-02-11T23:38:37.535Z,6.05
2023-02-11T23:41:05.592Z,5.50
2023-02-11T23:43:39.048Z,7.80
2023-02-11T23:46:07.476Z,6.15
2023-02-11T23:48:36.370Z,6.82
2023-02-11T23:51:04.418Z,6.00
2023-02-11T23:53:31.890Z,6.55
2023-02-11T23:55:58.776Z,5.85
2023-02-11T23:58:25.699Z,6.05
